createdAt,value
2022-09-12T00:01:05.963Z,18.85
2022-09-12T00:03:34.171Z,18.98
2022-09-12T00:06:02.395Z,19.12
2022-09-12T00:08:30.595Z,19.10
2022-09-12T00:10:58.945Z,19.14
2022-09-12T00:13:28.558Z,19.11
2022-09-12T00:15:57.075Z,18.94
2022-09-12T00:18:25.351Z,18.55
2022-09-12T00:20:53.626Z,18.89
2022-09-12T00:23:22.203Z,18.64
2022-09-12T00:25:50.565Z,18.56
2022-09-12T00:28:19.945Z,18.43
2022-09-12T00:30:50.063Z,18.69
2022-09-12T00:33:19.156Z,18.82
2022-09-12T00:35:48.895Z,18.85
2022-09-12T00:38:18.325Z,18.88
2022-09-12T00:40:46.756Z,18.71
2022-09-12T00:43:16.409Z,18.55
2022-09-12T00:45:45.123Z,18.54
2022-09-12T00:48:24.648Z,18.44
2022-09-12T00:50:52.841Z,18.08
2022-09-12T00:53:21.396Z,18.25
2022-09-12T00:55:51.390Z,18.20
2022-09-12T00:58:22.856Z,18.05
2022-09-12T01:00:51.161Z,18.37
2022-09-12T01:03:22.094Z,18.45
2022-09-12T01:05:56.827Z,18.47
2022-09-12T01:08:26.140Z,18.41
2022-09-12T01:10:54.426Z,18.41
2022-09-12T01:13:23.398Z,18.41
2022-09-12T01:15:52.720Z,18.30
2022-09-12T01:18:28.565Z,18.33
2022-09-12T01:21:07.052Z,18.31
2022-09-12T01:24:19.637Z,18.13
2022-09-12T01:27:23.618Z,17.90
2022-09-12T01:30:19.553Z,17.99
2022-09-12T01:32:59.293Z,17.90
2022-09-12T01:35:32.734Z,17.47
2022-09-12T01:38:10.383Z,17.30
2022-09-12T01:40:44.834Z,17.20
2022-09-12T01:43:20.634Z,17.62
2022-09-12T01:45:53.061Z,17.61
2022-09-12T01:48:25.304Z,17.52
2022-09-12T01:50:55.956Z,17.53
2022-09-12T01:53:25.153Z,17.30
2022-09-12T01:55:57.640Z,17.17
2022-09-12T01:58:29.157Z,16.72
2022-09-12T02:01:03.513Z,17.00
2022-09-12T02:03:35.747Z,17.05
2022-09-12T02:06:08.534Z,17.22
2022-09-12T02:08:39.926Z,17.36
2022-09-12T02:11:09.579Z,17.22
2022-09-12T02:13:41.279Z,17.20
2022-09-12T02:16:11.646Z,17.25
2022-09-12T02:18:48.504Z,17.33
2022-09-12T02:21:17.401Z,17.16
2022-09-12T02:23:49.571Z,17.23
2022-09-12T02:26:21.771Z,17.22
2022-09-12T02:28:50.468Z,16.74
2022-09-12T02:31:23.824Z,16.78
2022-09-12T02:34:05.661Z,16.22
2022-09-12T02:36:40.086Z,15.77
2022-09-12T02:39:08.519Z,16.35
2022-09-12T02:41:37.220Z,16.51
2022-09-12T02:44:06.114Z,16.74
2022-09-12T02:46:38.998Z,16.60
2022-09-12T02:49:09.533Z,16.38
2022-09-12T02:51:37.765Z,16.68
2022-09-12T02:54:07.486Z,16.88
2022-09-12T02:56:35.938Z,16.61
2022-09-12T02:59:06.809Z,16.57
2022-09-12T03:01:50.368Z,16.86
2022-09-12T03:04:38.846Z,16.71
2022-09-12T03:07:13.962Z,16.70
2022-09-12T03:09:47.588Z,16.67
2022-09-12T03:12:25.882Z,16.68
2022-09-12T03:15:07.701Z,16.25
2022-09-12T03:17:45.290Z,16.63
2022-09-12T03:20:17.494Z,16.57
2022-09-12T03:22:53.495Z,16.47
2022-09-12T03:25:24.849Z,16.44
2022-09-12T03:27:56.874Z,16.35
2022-09-12T03:30:25.628Z,16.00
2022-09-12T03:32:55.390Z,16.28
2022-09-12T03:35:26.316Z,16.36
2022-09-12T03:37:54.678Z,15.78
2022-09-12T03:40:22.960Z,15.38
2022-09-12T03:42:51.281Z,15.77
2022-09-12T03:45:19.591Z,15.64
2022-09-12T03:47:47.862Z,15.93
2022-09-12T03:50:16.226Z,15.58
2022-09-12T03:52:45.892Z,15.39
2022-09-12T03:55:14.315Z,15.45
2022-09-12T03:57:42.590Z,16.07
2022-09-12T04:00:11.395Z,15.71
2022-09-12T04:02:39.696Z,15.26
2022-09-12T04:05:08.320Z,15.83
2022-09-12T04:07:36.656Z,15.34
2022-09-12T04:10:07.211Z,15.42
2022-09-12T04:12:35.957Z,15.22
2022-09-12T04:15:04.431Z,14.99
2022-09-12T04:17:32.763Z,15.38
2022-09-12T04:20:01.161Z,15.63
2022-09-12T04:22:30.113Z,15.64
2022-09-12T04:24:58.474Z,15.78
2022-09-12T04:27:28.321Z,15.75
2022-09-12T04:29:57.411Z,15.64
2022-09-12T04:32:25.929Z,15.61
2022-09-12T04:34:54.358Z,15.52
2022-09-12T04:37:23.713Z,15.75
2022-09-12T04:39:56.182Z,15.69
2022-09-12T04:42:24.600Z,15.73
2022-09-12T04:44:54.718Z,15.60
2022-09-12T04:47:23.200Z,15.31
2022-09-12T04:49:52.452Z,15.57
2022-09-12T04:52:20.858Z,15.54
2022-09-12T04:54:49.189Z,15.42
2022-09-12T04:57:17.653Z,14.82
2022-09-12T04:59:46.100Z,15.33
2022-09-12T05:02:16.305Z,15.66
2022-09-12T05:04:44.852Z,16.17
2022-09-12T05:07:13.138Z,16.43
2022-09-12T05:09:41.630Z,16.95
2022-09-12T05:12:10.158Z,17.00
2022-09-12T05:14:38.430Z,16.55
2022-09-12T05:17:06.992Z,16.61
2022-09-12T05:19:38.005Z,16.01
2022-09-12T05:22:06.867Z,16.55
2022-09-12T05:24:35.513Z,16.45
2022-09-12T05:27:04.818Z,16.46
2022-09-12T05:29:34.100Z,16.39
2022-09-12T05:32:02.966Z,15.95
2022-09-12T05:34:31.502Z,15.89
2022-09-12T05:37:01.242Z,16.74
2022-09-12T05:39:29.726Z,16.74
2022-09-12T05:41:57.999Z,17.33
2022-09-12T05:44:26.789Z,17.27
2022-09-12T05:46:55.105Z,17.48
2022-09-12T05:49:23.456Z,16.99
2022-09-12T05:51:52.686Z,17.67
2022-09-12T05:54:22.959Z,17.91
2022-09-12T05:56:51.280Z,18.17
2022-09-12T05:59:21.182Z,17.41
2022-09-12T06:01:49.945Z,17.83
2022-09-12T06:04:18.714Z,18.26
2022-09-12T06:06:48.738Z,18.49
2022-09-12T06:09:18.016Z,18.28
2022-09-12T06:11:48.186Z,18.90
2022-09-12T06:14:17.589Z,19.19
2022-09-12T06:16:47.243Z,18.50
2022-09-12T06:19:17.852Z,18.51
2022-09-12T06:21:47.553Z,18.85
2022-09-12T06:24:15.974Z,19.28
2022-09-12T06:26:44.694Z,18.98
2022-09-12T06:29:14.767Z,19.43
2022-09-12T06:31:44.381Z,19.04
2022-09-12T06:34:14.405Z,19.43
2022-09-12T06:36:44.284Z,19.91
2022-09-12T06:39:14.066Z,20.10
2022-09-12T06:44:29.901Z,20.45
2022-09-12T06:46:58.782Z,20.52
2022-09-12T06:49:27.123Z,19.35
2022-09-12T06:51:55.376Z,20.20
2022-09-12T06:54:23.735Z,20.93
2022-09-12T06:56:52.171Z,20.50
2022-09-12T06:59:20.458Z,21.13
2022-09-12T07:01:50.947Z,21.00
2022-09-12T07:04:19.924Z,20.97
2022-09-12T07:06:48.320Z,20.78
2022-09-12T07:09:17.418Z,21.47
2022-09-12T07:11:47.293Z,21.67
2022-09-12T07:14:16.233Z,21.27
2022-09-12T07:16:45.083Z,20.18
2022-09-12T07:19:14.843Z,21.65
2022-09-12T07:21:43.184Z,21.79
2022-09-12T07:24:11.779Z,21.44
2022-09-12T07:26:42.245Z,21.98
2022-09-12T07:32:04.242Z,22.39
2022-09-12T07:34:34.137Z,21.56
2022-09-12T07:37:02.453Z,20.97
2022-09-12T07:39:30.805Z,20.90
2022-09-12T07:42:00.457Z,22.62
2022-09-12T07:44:29.415Z,22.03
2022-09-12T07:46:57.728Z,22.49
2022-09-12T07:49:26.053Z,22.26
2022-09-12T07:51:55.808Z,22.45
2022-09-12T07:54:24.425Z,23.43
2022-09-12T07:56:52.859Z,23.27
2022-09-12T07:59:41.402Z,23.55
2022-09-12T08:02:16.839Z,24.09
2022-09-12T08:04:46.780Z,23.20
2022-09-12T08:07:18.379Z,23.84
2022-09-12T08:09:47.345Z,24.13
2022-09-12T08:12:16.584Z,24.06
2022-09-12T08:17:30.553Z,24.33
2022-09-12T08:19:58.916Z,24.21
2022-09-12T08:22:28.631Z,24.76
2022-09-12T08:24:56.981Z,24.81
2022-09-12T08:27:25.367Z,24.44
2022-09-12T08:29:53.802Z,23.91
2022-09-12T08:32:22.314Z,24.04
2022-09-12T08:34:50.564Z,24.67
2022-09-12T08:37:20.495Z,23.34
2022-09-12T08:39:50.221Z,23.44
2022-09-12T08:42:25.770Z,23.68
2022-09-12T08:45:06.775Z,23.21
2022-09-12T08:47:37.449Z,23.79
2022-09-12T08:50:13.075Z,24.04
2022-09-12T08:52:46.271Z,24.88
2022-09-12T08:55:32.726Z,25.20
2022-09-12T08:58:02.079Z,24.16
2022-09-12T09:00:38.945Z,24.42
2022-09-12T09:03:38.743Z,25.83
2022-09-12T09:06:14.385Z,26.04
2022-09-12T09:08:58.744Z,25.52
2022-09-12T09:11:41.789Z,25.64
2022-09-12T09:14:44.495Z,25.76
2022-09-12T09:17:16.063Z,24.96
2022-09-12T09:22:44.559Z,24.72
2022-09-12T09:25:22.072Z,24.87
2022-09-12T09:27:57.711Z,25.86
2022-09-12T09:30:26.015Z,25.13
2022-09-12T09:32:56.545Z,24.98
2022-09-12T09:35:36.315Z,25.14
2022-09-12T09:38:08.667Z,26.57
2022-09-12T09:40:46.348Z,26.48
2022-09-12T09:43:22.885Z,25.96
2022-09-12T09:45:51.844Z,26.07
2022-09-12T09:48:21.198Z,25.89
2022-09-12T09:50:50.452Z,26.63
2022-09-12T09:53:27.803Z,25.80
2022-09-12T09:55:56.945Z,26.31
2022-09-12T09:58:33.915Z,26.11
2022-09-12T10:01:03.603Z,25.22
2022-09-12T10:03:33.980Z,26.41
2022-09-12T10:06:03.009Z,26.19
2022-09-12T10:08:32.806Z,25.90
2022-09-12T10:11:03.262Z,25.82
2022-09-12T10:13:47.980Z,25.86
2022-09-12T10:16:22.588Z,25.07
2022-09-12T10:18:52.554Z,25.55
2022-09-12T10:21:28.047Z,25.72
2022-09-12T10:24:03.231Z,26.16
2022-09-12T10:26:37.306Z,26.38
2022-09-12T10:29:13.806Z,26.43
2022-09-12T10:31:46.313Z,27.80
2022-09-12T10:34:24.021Z,27.29
2022-09-12T10:36:54.984Z,27.50
2022-09-12T10:39:24.043Z,26.71
2022-09-12T10:41:52.334Z,27.05
2022-09-12T10:44:27.353Z,27.46
2022-09-12T10:46:55.898Z,27.14
2022-09-12T10:49:27.762Z,27.76
2022-09-12T10:51:59.424Z,27.69
2022-09-12T10:54:29.565Z,27.51
2022-09-12T10:57:18.020Z,28.02
2022-09-12T11:00:06.569Z,27.98
2022-09-12T11:02:52.200Z,28.37
2022-09-12T11:05:36.841Z,28.23
2022-09-12T11:08:13.297Z,27.79
2022-09-12T11:10:46.692Z,28.06
2022-09-12T11:13:22.732Z,28.27
2022-09-12T11:16:07.473Z,28.43
2022-09-12T11:19:05.037Z,28.20
2022-09-12T11:21:45.112Z,28.37
2022-09-12T11:24:35.147Z,28.78
2022-09-12T11:27:13.968Z,28.74
2022-09-12T11:29:50.986Z,28.47
2022-09-12T11:32:47.010Z,28.75
2022-09-12T11:35:20.852Z,27.92
2022-09-12T11:38:01.073Z,27.84
2022-09-12T11:40:33.650Z,27.65
2022-09-12T11:43:05.790Z,26.98
2022-09-12T11:45:38.820Z,28.46
2022-09-12T11:48:11.962Z,28.57
2022-09-12T11:50:40.264Z,28.06
2022-09-12T11:53:17.098Z,27.74
2022-09-12T11:55:54.973Z,27.61
2022-09-12T11:58:26.211Z,28.41
2022-09-12T12:00:57.477Z,28.82
2022-09-12T12:03:33.284Z,28.29
2022-09-12T12:06:05.861Z,27.57
2022-09-12T12:08:39.491Z,28.52
2022-09-12T12:11:09.107Z,28.65
2022-09-12T12:13:39.708Z,28.67
2022-09-12T12:16:09.859Z,28.76
2022-09-12T12:18:40.438Z,28.47
2022-09-12T12:21:23.150Z,28.62
2022-09-12T12:24:05.241Z,27.82
2022-09-12T12:26:47.457Z,28.91
2022-09-12T12:29:40.364Z,29.01
2022-09-12T12:32:27.742Z,29.75
2022-09-12T12:35:39.518Z,29.56
2022-09-12T12:38:29.318Z,29.06
2022-09-12T12:41:45.334Z,27.79
2022-09-12T12:44:48.993Z,29.39
2022-09-12T12:47:20.256Z,29.29
2022-09-12T12:49:53.556Z,28.33
2022-09-12T12:52:23.327Z,29.48
2022-09-12T12:54:54.715Z,28.80
2022-09-12T12:57:42.753Z,28.69
2022-09-12T13:00:30.043Z,29.61
2022-09-12T13:03:01.247Z,30.18
2022-09-12T13:05:32.152Z,31.00
2022-09-12T13:08:04.829Z,28.69
2022-09-12T13:10:33.246Z,28.47
2022-09-12T13:13:05.254Z,29.44
2022-09-12T13:15:57.220Z,29.81
2022-09-12T13:18:28.689Z,29.49
2022-09-12T13:21:02.382Z,29.64
2022-09-12T13:23:33.996Z,29.86
2022-09-12T13:26:03.399Z,30.97
2022-09-12T13:28:32.314Z,29.45
2022-09-12T13:31:03.045Z,29.37
2022-09-12T13:33:36.232Z,28.25
2022-09-12T13:36:44.257Z,29.10
2022-09-12T13:39:34.091Z,29.09
2022-09-12T13:42:17.912Z,29.30
2022-09-12T13:44:48.905Z,29.87
2022-09-12T13:47:26.523Z,29.33
2022-09-12T13:49:55.789Z,30.18
2022-09-12T13:52:27.287Z,29.76
2022-09-12T13:54:59.566Z,29.91
2022-09-12T13:57:31.078Z,30.50
2022-09-12T14:00:00.444Z,30.29
2022-09-12T14:02:31.303Z,30.86
2022-09-12T14:05:09.109Z,30.20
2022-09-12T14:07:53.362Z,30.43
2022-09-12T14:10:28.184Z,31.99
2022-09-12T14:12:57.319Z,31.14
2022-09-12T14:15:28.784Z,29.88
2022-09-12T14:18:01.489Z,29.85
2022-09-12T14:20:32.754Z,29.14
2022-09-12T14:23:03.070Z,30.61
2022-09-12T14:25:39.088Z,29.32
2022-09-12T14:28:07.612Z,29.58
2022-09-12T14:30:37.358Z,31.63
2022-09-12T14:33:20.801Z,30.77
2022-09-12T14:35:50.279Z,30.23
2022-09-12T14:38:33.009Z,30.78
2022-09-12T14:41:04.389Z,30.87
2022-09-12T14:43:34.726Z,30.19
2022-09-12T14:46:04.735Z,31.55
2022-09-12T14:48:36.382Z,29.23
2022-09-12T14:51:05.308Z,30.10
2022-09-12T14:53:34.997Z,30.74
2022-09-12T14:56:12.734Z,30.23
2022-09-12T14:58:42.202Z,30.50
2022-09-12T15:01:25.441Z,31.61
2022-09-12T15:03:57.282Z,30.49
2022-09-12T15:06:29.748Z,30.58
2022-09-12T15:08:59.380Z,31.09
2022-09-12T15:11:29.217Z,31.41
2022-09-12T15:13:57.656Z,31.13
2022-09-12T15:16:26.055Z,31.12
2022-09-12T15:18:54.367Z,31.64
2022-09-12T15:21:22.617Z,31.23
2022-09-12T15:23:51.827Z,30.56
2022-09-12T15:26:21.778Z,30.27
2022-09-12T15:28:52.067Z,31.04
2022-09-12T15:31:25.385Z,31.25
2022-09-12T15:33:54.398Z,31.30
2022-09-12T15:36:23.976Z,30.74
2022-09-12T15:38:53.013Z,31.62
2022-09-12T15:41:23.246Z,30.21
2022-09-12T15:43:52.795Z,29.52
2022-09-12T15:46:21.548Z,30.65
2022-09-12T15:48:50.170Z,31.94
2022-09-12T15:51:20.416Z,31.80
2022-09-12T15:53:48.924Z,30.53
2022-09-12T15:56:18.532Z,30.29
2022-09-12T15:58:58.249Z,30.55
2022-09-12T16:01:29.850Z,29.10
2022-09-12T16:03:58.439Z,30.60
2022-09-12T16:06:27.905Z,30.68
2022-09-12T16:08:56.270Z,31.02
2022-09-12T16:11:26.467Z,30.95
2022-09-12T16:13:54.947Z,30.49
2022-09-12T16:16:23.484Z,30.32
2022-09-12T16:18:53.272Z,29.42
2022-09-12T16:21:21.690Z,29.33
2022-09-12T16:23:50.343Z,29.43
2022-09-12T16:26:18.811Z,30.23
2022-09-12T16:28:47.305Z,28.92
2022-09-12T16:31:16.058Z,28.89
2022-09-12T16:33:44.352Z,28.72
2022-09-12T16:36:15.716Z,28.86
2022-09-12T16:38:44.637Z,28.36
2022-09-12T16:41:13.868Z,28.52
2022-09-12T16:43:42.908Z,28.57
2022-09-12T16:46:13.744Z,28.26
2022-09-12T16:48:49.385Z,28.14
2022-09-12T16:51:22.914Z,27.73
2022-09-12T16:53:51.776Z,27.86
2022-09-12T16:56:20.843Z,27.78
2022-09-12T16:58:49.252Z,28.29
2022-09-12T17:01:19.262Z,27.65
2022-09-12T17:03:47.748Z,27.52
2022-09-12T17:06:18.101Z,27.89
2022-09-12T17:08:48.143Z,27.28
2022-09-12T17:11:18.618Z,27.42
2022-09-12T17:14:04.027Z,27.71
2022-09-12T17:16:34.342Z,27.96
2022-09-12T17:19:02.884Z,28.28
2022-09-12T17:21:31.179Z,28.02
2022-09-12T17:24:00.839Z,27.76
2022-09-12T17:26:29.155Z,27.70
2022-09-12T17:28:57.442Z,27.73
2022-09-12T17:31:26.710Z,26.97
2022-09-12T17:33:58.050Z,26.85
2022-09-12T17:36:27.048Z,26.53
2022-09-12T17:38:55.555Z,26.26
2022-09-12T17:41:26.317Z,26.60
2022-09-12T17:43:57.375Z,26.35
2022-09-12T17:46:27.166Z,26.61
2022-09-12T17:48:57.342Z,26.64
2022-09-12T17:51:28.907Z,26.61
2022-09-12T17:54:00.116Z,26.09
2022-09-12T17:56:31.800Z,25.20
2022-09-12T17:59:00.887Z,26.00
2022-09-12T18:01:47.955Z,25.70
2022-09-12T18:04:16.785Z,25.24
2022-09-12T18:06:48.144Z,25.60
2022-09-12T18:09:17.794Z,24.99
2022-09-12T18:11:48.475Z,25.02
2022-09-12T18:14:17.502Z,25.09
2022-09-12T18:16:46.267Z,25.18
2022-09-12T18:19:15.180Z,25.03
2022-09-12T18:21:43.499Z,25.04
2022-09-12T18:24:12.059Z,25.39
2022-09-12T18:26:40.397Z,25.35
2022-09-12T18:29:10.098Z,25.23
2022-09-12T18:31:38.424Z,25.13
2022-09-12T18:34:12.556Z,25.04
2022-09-12T18:36:41.549Z,24.92
2022-09-12T18:39:09.840Z,24.84
2022-09-12T18:41:39.005Z,24.69
2022-09-12T18:44:08.334Z,24.60
2022-09-12T18:46:38.144Z,24.54
2022-09-12T18:49:07.471Z,24.45
2022-09-12T18:51:37.241Z,24.33
2022-09-12T18:54:07.347Z,24.23
2022-09-12T18:56:38.406Z,24.12
2022-09-12T18:59:08.077Z,24.07
2022-09-12T19:01:38.845Z,23.96
2022-09-12T19:04:08.031Z,23.85
2022-09-12T19:06:37.747Z,23.76
2022-09-12T19:09:08.241Z,23.58
2022-09-12T19:11:38.433Z,23.38
2022-09-12T19:14:07.715Z,23.40
2022-09-12T19:16:37.472Z,23.29
2022-09-12T19:19:06.241Z,23.24
2022-09-12T19:21:35.415Z,23.20
2022-09-12T19:24:05.778Z,23.15
2022-09-12T19:26:34.671Z,23.07
2022-09-12T19:29:03.555Z,22.95
2022-09-12T19:31:32.490Z,22.92
2022-09-12T19:34:03.200Z,22.77
2022-09-12T19:36:44.979Z,22.61
2022-09-12T19:39:14.281Z,22.72
2022-09-12T19:41:42.632Z,22.66
2022-09-12T19:44:11.590Z,22.62
2022-09-12T19:46:40.379Z,22.58
2022-09-12T19:49:11.102Z,22.62
2022-09-12T19:51:39.549Z,22.58
2022-09-12T19:54:07.912Z,22.49
2022-09-12T19:56:36.268Z,22.47
2022-09-12T19:59:04.553Z,22.44
2022-09-12T20:01:33.281Z,22.43
2022-09-12T20:04:01.911Z,22.33
2022-09-12T20:06:31.647Z,22.27
2022-09-12T20:09:00.116Z,22.24
2022-09-12T20:11:28.382Z,22.14
2022-09-12T20:13:56.740Z,22.04
2022-09-12T20:16:29.156Z,22.08
2022-09-12T20:18:59.329Z,21.92
2022-09-12T20:21:31.442Z,21.96
2022-09-12T20:24:06.035Z,21.75
2022-09-12T20:26:34.789Z,21.90
2022-09-12T20:29:03.310Z,21.91
2022-09-12T20:31:31.995Z,21.87
2022-09-12T20:34:00.668Z,21.78
2022-09-12T20:36:29.388Z,21.75
2022-09-12T20:39:00.192Z,21.59
2022-09-12T20:41:34.065Z,21.71
2022-09-12T20:44:02.462Z,21.68
2022-09-12T20:46:30.873Z,21.53
2022-09-12T20:48:59.545Z,21.55
2022-09-12T20:51:29.694Z,21.41
2022-09-12T20:53:58.746Z,21.30
2022-09-12T20:56:29.386Z,21.27
2022-09-12T20:58:57.787Z,21.26
2022-09-12T21:01:27.412Z,21.20
2022-09-12T21:03:55.888Z,21.21
2022-09-12T21:06:24.707Z,21.21
2022-09-12T21:08:54.073Z,21.09
2022-09-12T21:11:22.438Z,21.11
2022-09-12T21:13:52.750Z,21.06
2022-09-12T21:16:22.711Z,20.97
2022-09-12T21:18:54.784Z,20.99
2022-09-12T21:21:23.261Z,20.97
2022-09-12T21:23:51.811Z,20.93
2022-09-12T21:26:20.092Z,20.80
2022-09-12T21:28:49.592Z,20.89
2022-09-12T21:31:19.243Z,20.90
2022-09-12T21:33:47.702Z,20.91
2022-09-12T21:36:16.114Z,20.86
2022-09-12T21:38:44.454Z,20.75
2022-09-12T21:41:13.952Z,20.74
2022-09-12T21:43:42.714Z,20.63
2022-09-12T21:46:11.641Z,20.62
2022-09-12T21:48:41.477Z,20.55
2022-09-12T21:51:09.841Z,20.51
2022-09-12T21:53:38.126Z,20.50
2022-09-12T21:56:08.236Z,20.52
2022-09-12T21:58:37.077Z,20.13
2022-09-12T22:01:08.561Z,20.26
2022-09-12T22:03:36.966Z,20.32
2022-09-12T22:06:07.622Z,20.14
2022-09-12T22:08:37.345Z,19.90
2022-09-12T22:11:09.678Z,19.78
2022-09-12T22:13:39.379Z,20.05
2022-09-12T22:16:08.519Z,20.11
2022-09-12T22:18:38.144Z,20.06
2022-09-12T22:21:09.616Z,19.94
2022-09-12T22:23:55.533Z,19.71
2022-09-12T22:26:24.014Z,19.86
2022-09-12T22:28:52.466Z,19.59
2022-09-12T22:31:20.967Z,19.63
2022-09-12T22:33:51.535Z,19.78
2022-09-12T22:36:21.006Z,19.17
2022-09-12T22:38:49.383Z,19.29
2022-09-12T22:41:17.923Z,19.37
2022-09-12T22:43:46.377Z,19.51
2022-09-12T22:46:14.720Z,19.13
2022-09-12T22:48:43.204Z,19.00
2022-09-12T22:51:12.124Z,19.23
2022-09-12T22:53:41.832Z,19.26
2022-09-12T22:56:10.533Z,19.00
2022-09-12T22:58:38.884Z,18.45
2022-09-12T23:01:07.640Z,18.70
2022-09-12T23:03:36.471Z,19.05
2022-09-12T23:06:05.080Z,19.18
2022-09-12T23:08:34.724Z,19.03
2022-09-12T23:11:06.496Z,19.17
2022-09-12T23:13:34.844Z,19.20
2022-09-12T23:16:05.645Z,18.96
2022-09-12T23:18:35.768Z,18.94
2022-09-12T23:21:06.185Z,19.17
2022-09-12T23:23:34.996Z,19.24
2022-09-12T23:26:06.874Z,19.18
2022-09-12T23:28:35.481Z,19.30
2022-09-12T23:31:04.434Z,18.89
2022-09-12T23:33:33.533Z,18.67
2022-09-12T23:36:02.203Z,18.71
2022-09-12T23:38:31.048Z,18.53
2022-09-12T23:40:59.624Z,19.06
2022-09-12T23:43:29.606Z,18.71
2022-09-12T23:45:58.489Z,18.62
2022-09-12T23:48:27.147Z,18.87
2022-09-12T23:50:55.632Z,18.63
2022-09-12T23:53:24.301Z,18.70
2022-09-12T23:55:52.844Z,18.23
2022-09-12T23:58:21.675Z,17.64
